createdAt,value
2023-04-29T00:00:16.307Z,98954.98
2023-04-29T00:05:54.005Z,98952.03
2023-04-29T00:11:19.937Z,98950.59
2023-04-29T00:16:44.881Z,98953.18
2023-04-29T00:22:09.440Z,98950.55
2023-04-29T00:27:33.478Z,98945.73
2023-04-29T00:32:58.074Z,98946.92
2023-04-29T00:38:22.260Z,98948.27
2023-04-29T00:43:46.971Z,98947.71
2023-04-29T00:49:13.891Z,98944.01
2023-04-29T00:54:40.245Z,98944.38
2023-04-29T01:00:05.925Z,98942.91
2023-04-29T01:05:29.907Z,98940.34
2023-04-29T01:11:11.616Z,98937.41
2023-04-29T01:16:45.561Z,98932.71
2023-04-29T01:22:12.297Z,98935.67
2023-04-29T01:27:58.176Z,98928.09
2023-04-29T01:33:41.392Z,98924.39
2023-04-29T01:39:12.129Z,98917.16
2023-04-29T01:44:38.954Z,98917.80
2023-04-29T01:50:04.814Z,98912.29
2023-04-29T01:55:30.249Z,98917.73
2023-04-29T02:01:18.833Z,98917.50
2023-04-29T02:06:43.694Z,98911.76
2023-04-29T02:12:08.208Z,98907.73
2023-04-29T02:17:34.472Z,98907.42
2023-04-29T02:23:00.576Z,98900.36
2023-04-29T02:28:25.586Z,98905.73
2023-04-29T02:33:50.056Z,98904.98
2023-04-29T02:39:14.608Z,98900.40
2023-04-29T02:44:38.993Z,98898.36
2023-04-29T02:50:03.214Z,98899.72
2023-04-29T02:55:30.234Z,98900.55
2023-04-29T03:00:59.107Z,98899.33
2023-04-29T03:06:23.581Z,98899.86
2023-04-29T03:11:48.092Z,98898.01
2023-04-29T03:17:12.570Z,98894.09
2023-04-29T03:22:37.405Z,98896.84
2023-04-29T03:28:03.594Z,98898.13
2023-04-29T03:33:28.701Z,98902.88
2023-04-29T03:38:52.625Z,98903.70
2023-04-29T03:44:16.721Z,98907.24
2023-04-29T03:49:41.614Z,98910.48
2023-04-29T03:55:07.484Z,98905.88
2023-04-29T04:00:33.297Z,98904.64
2023-04-29T04:05:58.809Z,98901.13
2023-04-29T04:11:23.304Z,98902.41
2023-04-29T04:17:01.781Z,98903.22
2023-04-29T04:22:26.877Z,98911.61
2023-04-29T04:28:06.731Z,98919.08
2023-04-29T04:33:51.574Z,98922.70
2023-04-29T04:39:16.265Z,98922.84
2023-04-29T04:44:41.024Z,98919.79
2023-04-29T04:50:09.693Z,98917.45
2023-04-29T04:55:34.824Z,98921.70
2023-04-29T05:01:01.239Z,98919.20
2023-04-29T05:06:26.658Z,98915.35
2023-04-29T05:11:52.701Z,98913.77
2023-04-29T05:17:17.939Z,98912.30
2023-04-29T05:22:42.282Z,98905.62
2023-04-29T05:28:07.903Z,98904.68
2023-04-29T05:33:33.685Z,98905.69
2023-04-29T05:38:59.060Z,98902.19
2023-04-29T05:44:24.240Z,98897.76
2023-04-29T05:49:49.803Z,98892.89
2023-04-29T05:55:14.498Z,98885.73
2023-04-29T06:00:39.919Z,98881.09
2023-04-29T06:06:09.242Z,98873.45
2023-04-29T06:11:45.544Z,98877.81
2023-04-29T06:17:15.070Z,98890.34
2023-04-29T06:22:43.291Z,98891.48
2023-04-29T06:28:09.996Z,98893.17
2023-04-29T06:33:36.573Z,98891.05
2023-04-29T06:39:03.622Z,98897.27
2023-04-29T06:44:51.461Z,98907.91
2023-04-29T06:50:39.112Z,98921.45
2023-04-29T06:56:07.367Z,98929.69
2023-04-29T07:01:33.401Z,98928.06
2023-04-29T07:07:00.397Z,98938.13
2023-04-29T07:12:26.653Z,98942.52
2023-04-29T07:17:55.985Z,98941.20
2023-04-29T07:23:24.061Z,98944.54
2023-04-29T07:28:50.431Z,98941.93
2023-04-29T07:34:19.796Z,98937.42
2023-04-29T07:39:44.800Z,98935.79
2023-04-29T07:45:13.623Z,98933.46
2023-04-29T07:50:41.466Z,98933.55
2023-04-29T07:56:09.088Z,98935.05
2023-04-29T08:01:33.825Z,98941.11
2023-04-29T08:06:58.358Z,98946.11
2023-04-29T08:12:23.000Z,98954.05
2023-04-29T08:17:47.849Z,98956.66
2023-04-29T08:23:12.438Z,98958.87
2023-04-29T08:28:37.057Z,98966.23
2023-04-29T08:34:01.871Z,98966.95
2023-04-29T08:39:26.528Z,98967.80
2023-04-29T08:44:53.556Z,98973.30
2023-04-29T08:50:19.067Z,98975.25
2023-04-29T08:55:47.127Z,98976.13
2023-04-29T09:01:12.071Z,98980.19
2023-04-29T09:06:38.539Z,98980.18
2023-04-29T09:12:47.512Z,98980.34
2023-04-29T09:18:58.830Z,98987.67
2023-04-29T09:24:28.145Z,98990.50
2023-04-29T09:37:28.331Z,99003.46
2023-04-29T09:42:53.148Z,99014.67
2023-04-29T09:48:17.853Z,99024.61
2023-04-29T09:53:42.614Z,99023.54
2023-04-29T09:59:10.548Z,99025.86
2023-04-29T10:04:38.187Z,99025.42
2023-04-29T10:10:06.288Z,99019.04
2023-04-29T10:15:44.563Z,99019.02
2023-04-29T10:21:10.086Z,99016.01
2023-04-29T10:26:37.729Z,99015.72
2023-04-29T10:32:03.903Z,99012.48
2023-04-29T10:37:29.020Z,99008.62
2023-04-29T10:42:55.397Z,99008.48
2023-04-29T10:48:22.924Z,99010.33
2023-04-29T10:54:06.583Z,99008.80
2023-04-29T10:59:34.032Z,99005.90
2023-04-29T11:05:11.493Z,99002.84
2023-04-29T11:10:42.228Z,99004.44
2023-04-29T11:16:12.020Z,99007.30
2023-04-29T11:21:37.132Z,99011.54
2023-04-29T11:27:04.779Z,99016.39
2023-04-29T11:32:30.786Z,99016.61
2023-04-29T11:37:55.634Z,99023.73
2023-04-29T11:43:21.407Z,99021.58
2023-04-29T11:48:50.489Z,99028.24
2023-04-29T11:54:15.098Z,99028.27
2023-04-29T11:59:39.775Z,99023.61
2023-04-29T12:05:13.464Z,99026.02
2023-04-29T12:10:38.372Z,99029.52
2023-04-29T12:16:04.696Z,99027.12
2023-04-29T12:21:30.213Z,99020.65
2023-04-29T12:26:56.503Z,99011.30
2023-04-29T12:32:26.085Z,99014.00
2023-04-29T12:37:51.545Z,99014.41
2023-04-29T12:43:16.036Z,99020.28
2023-04-29T12:48:42.032Z,99018.25
2023-04-29T12:54:07.844Z,99027.48
2023-04-29T13:00:37.278Z,99034.30
2023-04-29T13:06:09.102Z,99040.00
2023-04-29T13:11:34.756Z,99044.92
2023-04-29T13:16:59.327Z,99050.20
2023-04-29T13:22:24.596Z,99053.55
2023-04-29T13:27:50.204Z,99059.41
2023-04-29T13:33:15.534Z,99063.82
2023-04-29T13:38:42.103Z,99065.68
2023-04-29T13:44:14.590Z,99066.71
2023-04-29T13:50:16.580Z,99068.70
2023-04-29T14:01:43.375Z,99079.64
2023-04-29T14:06:57.477Z,99084.75
2023-04-29T14:12:26.728Z,99096.95
2023-04-29T14:17:56.902Z,99107.57
2023-04-29T14:23:28.815Z,99124.88
2023-04-29T14:28:58.877Z,99124.42
2023-04-29T14:34:24.461Z,99134.52
2023-04-29T14:39:51.105Z,99139.70
2023-04-29T14:45:16.169Z,99137.15
2023-04-29T14:50:41.265Z,99139.60
2023-04-29T14:56:08.273Z,99150.08
2023-04-29T15:01:32.930Z,99154.55
2023-04-29T15:06:58.831Z,99164.23
2023-04-29T15:12:23.248Z,99167.29
2023-04-29T15:17:47.932Z,99171.96
2023-04-29T15:23:13.674Z,99185.41
2023-04-29T15:28:38.582Z,99192.74
2023-04-29T15:34:03.766Z,99197.23
2023-04-29T15:46:33.659Z,99218.22
2023-04-29T15:51:59.548Z,99226.17
2023-04-29T15:57:26.772Z,99234.52
2023-04-29T16:02:52.231Z,99236.78
2023-04-29T16:08:19.370Z,99240.12
2023-04-29T16:13:46.193Z,99251.41
2023-04-29T16:19:11.343Z,99251.40
2023-04-29T16:24:37.311Z,99261.66
2023-04-29T16:30:03.558Z,99267.45
2023-04-29T16:35:31.239Z,99269.02
2023-04-29T16:40:56.494Z,99275.88
2023-04-29T16:46:22.943Z,99286.65
2023-04-29T16:51:50.971Z,99289.94
2023-04-29T16:57:18.013Z,99297.70
2023-04-29T17:02:46.753Z,99302.85
2023-04-29T17:08:16.154Z,99308.23
2023-04-29T17:13:45.467Z,99317.95
2023-04-29T17:19:12.129Z,99324.86
2023-04-29T17:24:40.672Z,99328.41
2023-04-29T17:30:09.581Z,99335.31
2023-04-29T17:35:37.301Z,99342.44
2023-04-29T17:41:04.835Z,99353.75
2023-04-29T17:46:31.958Z,99357.36
2023-04-29T17:52:01.052Z,99360.75
2023-04-29T17:57:29.660Z,99369.30
2023-04-29T18:02:55.604Z,99380.09
2023-04-29T18:08:21.731Z,99390.66
2023-04-29T18:13:45.824Z,99390.83
2023-04-29T18:19:11.305Z,99395.39
2023-04-29T18:24:36.920Z,99400.86
2023-04-29T18:30:03.561Z,99406.02
2023-04-29T18:35:29.273Z,99415.84
2023-04-29T18:40:55.938Z,99423.34
2023-04-29T18:46:23.108Z,99435.65
2023-04-29T18:51:50.603Z,99451.11
2023-04-29T18:57:18.287Z,99458.17
2023-04-29T19:02:45.008Z,99461.47
2023-04-29T19:08:13.409Z,99464.95
2023-04-29T19:13:40.399Z,99476.06
2023-04-29T19:19:09.110Z,99480.38
2023-04-29T19:24:48.842Z,99486.07
2023-04-29T19:30:42.354Z,99492.54
2023-04-29T19:43:39.546Z,99507.61
2023-04-29T19:49:05.517Z,99510.14
2023-04-29T19:54:33.349Z,99516.52
2023-04-29T20:00:06.536Z,99522.98
2023-04-29T20:05:34.717Z,99528.47
2023-04-29T20:11:05.672Z,99533.45
2023-04-29T20:16:32.903Z,99537.73
2023-04-29T20:22:00.125Z,99539.05
2023-04-29T20:27:27.821Z,99535.65
2023-04-29T20:32:53.631Z,99539.90
2023-04-29T20:38:19.212Z,99542.34
2023-04-29T20:43:44.475Z,99548.52
2023-04-29T20:49:12.830Z,99555.29
2023-04-29T20:54:37.396Z,99554.19
2023-04-29T21:00:06.702Z,99558.16
2023-04-29T21:05:33.587Z,99558.13
2023-04-29T21:11:00.479Z,99560.91
2023-04-29T21:16:27.496Z,99567.64
2023-04-29T21:21:53.348Z,99577.23
2023-04-29T21:27:20.778Z,99589.36
2023-04-29T21:32:45.925Z,99596.71
2023-04-29T21:38:11.021Z,99598.11
2023-04-29T21:43:35.228Z,99597.84
2023-04-29T21:49:01.398Z,99596.05
2023-04-29T21:54:26.047Z,99600.15
2023-04-29T21:59:51.378Z,99596.74
2023-04-29T22:05:15.953Z,99604.40
2023-04-29T22:10:41.864Z,99606.89
2023-04-29T22:16:07.758Z,99600.94
2023-04-29T22:21:33.940Z,99605.45
2023-04-29T22:26:58.264Z,99603.84
2023-04-29T22:32:23.558Z,99603.66
2023-04-29T22:37:47.871Z,99611.59
2023-04-29T22:43:13.266Z,99612.33
2023-04-29T22:48:37.679Z,99616.79
2023-04-29T22:54:02.086Z,99620.11
2023-04-29T22:59:26.472Z,99621.46
2023-04-29T23:04:50.290Z,99627.52
2023-04-29T23:10:14.332Z,99623.83
2023-04-29T23:15:39.563Z,99626.71
2023-04-29T23:21:05.454Z,99627.02
2023-04-29T23:26:31.652Z,99628.70
2023-04-29T23:31:56.008Z,99627.86
2023-04-29T23:37:24.499Z,99633.82
2023-04-29T23:42:49.973Z,99636.63
2023-04-29T23:48:16.554Z,99639.95
2023-04-29T23:53:41.185Z,99641.37
2023-04-29T23:59:06.845Z,99646.25
